sensor_id;sensor_type;location;lat;lon;timestamp;P1;durP1;ratioP1;P2;durP2;ratioP2
5742;SDS011;2896;53.500;10.020;2022-10-15T00:00:20;19.00;;;13.40;;
5742;SDS011;2896;53.500;10.020;2022-10-15T00:02:46;20.67;;;14.97;;
5742;SDS011;2896;53.500;10.020;2022-10-15T00:05:14;16.67;;;12.57;;
5742;SDS011;2896;53.500;10.020;2022-10-15T00:07:41;19.40;;;14.90;;
5742;SDS011;2896;53.500;10.020;2022-10-15T00:10:08;18.70;;;12.63;;
5742;SDS011;2896;53.500;10.020;2022-10-15T00:12:36;23.63;;;15.40;;
5742;SDS011;2896;53.500;10.020;2022-10-15T00:15:03;29.83;;;17.37;;
5742;SDS011;2896;53.500;10.020;2022-10-15T00:17:30;22.17;;;16.30;;
5742;SDS011;2896;53.500;10.020;2022-10-15T00:19:58;20.33;;;15.90;;
5742;SDS011;2896;53.500;10.020;2022-10-15T00:22:24;22.30;;;16.00;;
5742;SDS011;2896;53.500;10.020;2022-10-15T00:24:51;27.47;;;17.00;;
5742;SDS011;2896;53.500;10.020;2022-10-15T00:27:18;27.33;;;17.70;;
5742;SDS011;2896;53.500;10.020;2022-10-15T00:29:46;20.50;;;15.90;;
5742;SDS011;2896;53.500;10.020;2022-10-15T00:32:12;19.03;;;14.97;;
5742;SDS011;2896;53.500;10.020;2022-10-15T00:34:39;25.10;;;16.20;;
5742;SDS011;2896;53.500;10.020;2022-10-15T00:37:06;24.37;;;15.40;;
5742;SDS011;2896;53.500;10.020;2022-10-15T00:39:33;16.50;;;13.03;;
5742;SDS011;2896;53.500;10.020;2022-10-15T00:42:00;27.70;;;16.53;;
5742;SDS011;2896;53.500;10.020;2022-10-15T00:44:47;18.23;;;14.40;;
5742;SDS011;2896;53.500;10.020;2022-10-15T00:47:21;15.77;;;13.13;;
5742;SDS011;2896;53.500;10.020;2022-10-15T00:49:54;17.30;;;13.50;;
5742;SDS011;2896;53.500;10.020;2022-10-15T00:52:28;18.77;;;14.20;;
5742;SDS011;2896;53.500;10.020;2022-10-15T00:55:01;16.30;;;12.33;;
5742;SDS011;2896;53.500;10.020;2022-10-15T00:57:31;24.73;;;16.27;;
5742;SDS011;2896;53.500;10.020;2022-10-15T01:00:01;23.10;;;17.57;;
5742;SDS011;2896;53.500;10.020;2022-10-15T01:02:31;23.90;;;17.07;;
5742;SDS011;2896;53.500;10.020;2022-10-15T01:04:58;25.50;;;17.50;;
5742;SDS011;2896;53.500;10.020;2022-10-15T01:07:24;22.03;;;16.33;;
5742;SDS011;2896;53.500;10.020;2022-10-15T01:09:51;30.00;;;19.80;;
5742;SDS011;2896;53.500;10.020;2022-10-15T01:12:19;34.47;;;22.70;;
5742;SDS011;2896;53.500;10.020;2022-10-15T01:14:55;27.07;;;19.50;;
5742;SDS011;2896;53.500;10.020;2022-10-15T01:17:29;34.93;;;23.47;;
5742;SDS011;2896;53.500;10.020;2022-10-15T01:22:56;43.80;;;27.13;;
5742;SDS011;2896;53.500;10.020;2022-10-15T01:25:39;39.33;;;25.00;;
5742;SDS011;2896;53.500;10.020;2022-10-15T01:28:15;46.37;;;27.40;;
5742;SDS011;2896;53.500;10.020;2022-10-15T01:30:54;43.50;;;27.10;;
5742;SDS011;2896;53.500;10.020;2022-10-15T01:33:25;42.23;;;28.20;;
5742;SDS011;2896;53.500;10.020;2022-10-15T01:35:58;35.23;;;25.10;;
5742;SDS011;2896;53.500;10.020;2022-10-15T01:38:34;38.57;;;26.40;;
5742;SDS011;2896;53.500;10.020;2022-10-15T01:41:09;38.23;;;26.67;;
5742;SDS011;2896;53.500;10.020;2022-10-15T01:43:42;38.83;;;26.23;;
5742;SDS011;2896;53.500;10.020;2022-10-15T01:46:15;39.73;;;27.30;;
5742;SDS011;2896;53.500;10.020;2022-10-15T01:48:46;36.17;;;26.30;;
5742;SDS011;2896;53.500;10.020;2022-10-15T01:51:15;43.57;;;28.20;;
5742;SDS011;2896;53.500;10.020;2022-10-15T01:53:44;41.43;;;28.93;;
5742;SDS011;2896;53.500;10.020;2022-10-15T01:56:13;39.30;;;25.90;;
5742;SDS011;2896;53.500;10.020;2022-10-15T01:58:44;39.17;;;25.53;;
5742;SDS011;2896;53.500;10.020;2022-10-15T02:01:15;39.47;;;27.63;;
5742;SDS011;2896;53.500;10.020;2022-10-15T02:03:43;40.73;;;28.73;;
5742;SDS011;2896;53.500;10.020;2022-10-15T02:06:12;48.97;;;29.13;;
5742;SDS011;2896;53.500;10.020;2022-10-15T02:08:44;43.70;;;27.13;;
5742;SDS011;2896;53.500;10.020;2022-10-15T02:11:21;39.73;;;28.03;;
5742;SDS011;2896;53.500;10.020;2022-10-15T02:13:49;45.13;;;29.30;;
5742;SDS011;2896;53.500;10.020;2022-10-15T02:16:21;37.83;;;26.50;;
5742;SDS011;2896;53.500;10.020;2022-10-15T02:18:51;48.63;;;30.50;;
5742;SDS011;2896;53.500;10.020;2022-10-15T02:21:24;46.10;;;28.70;;
5742;SDS011;2896;53.500;10.020;2022-10-15T02:23:56;42.33;;;28.60;;
5742;SDS011;2896;53.500;10.020;2022-10-15T02:26:30;51.37;;;32.47;;
5742;SDS011;2896;53.500;10.020;2022-10-15T02:28:59;53.47;;;33.03;;
5742;SDS011;2896;53.500;10.020;2022-10-15T02:31:30;53.00;;;31.30;;
5742;SDS011;2896;53.500;10.020;2022-10-15T02:34:01;47.37;;;29.93;;
5742;SDS011;2896;53.500;10.020;2022-10-15T02:36:30;51.50;;;30.80;;
5742;SDS011;2896;53.500;10.020;2022-10-15T02:38:58;52.60;;;32.40;;
5742;SDS011;2896;53.500;10.020;2022-10-15T02:41:27;53.07;;;30.17;;
5742;SDS011;2896;53.500;10.020;2022-10-15T02:43:54;50.03;;;30.57;;
5742;SDS011;2896;53.500;10.020;2022-10-15T02:46:21;54.37;;;31.20;;
5742;SDS011;2896;53.500;10.020;2022-10-15T02:48:49;51.97;;;29.10;;
5742;SDS011;2896;53.500;10.020;2022-10-15T02:51:16;48.97;;;29.97;;
5742;SDS011;2896;53.500;10.020;2022-10-15T02:53:42;46.83;;;28.27;;
5742;SDS011;2896;53.500;10.020;2022-10-15T02:56:09;50.17;;;29.53;;
5742;SDS011;2896;53.500;10.020;2022-10-15T02:58:36;45.67;;;28.80;;
5742;SDS011;2896;53.500;10.020;2022-10-15T03:01:02;49.27;;;29.50;;
5742;SDS011;2896;53.500;10.020;2022-10-15T03:03:29;47.77;;;27.93;;
5742;SDS011;2896;53.500;10.020;2022-10-15T03:05:57;43.73;;;27.20;;
5742;SDS011;2896;53.500;10.020;2022-10-15T03:08:24;44.20;;;26.87;;
5742;SDS011;2896;53.500;10.020;2022-10-15T03:10:51;57.27;;;27.23;;
5742;SDS011;2896;53.500;10.020;2022-10-15T03:13:17;44.90;;;27.77;;
5742;SDS011;2896;53.500;10.020;2022-10-15T03:15:44;42.77;;;26.80;;
5742;SDS011;2896;53.500;10.020;2022-10-15T03:18:11;44.30;;;25.77;;
5742;SDS011;2896;53.500;10.020;2022-10-15T03:20:37;44.40;;;27.73;;
5742;SDS011;2896;53.500;10.020;2022-10-15T03:23:06;38.27;;;24.33;;
5742;SDS011;2896;53.500;10.020;2022-10-15T03:25:32;39.63;;;23.93;;
5742;SDS011;2896;53.500;10.020;2022-10-15T03:27:59;49.17;;;25.50;;
5742;SDS011;2896;53.500;10.020;2022-10-15T03:30:26;44.77;;;22.63;;
5742;SDS011;2896;53.500;10.020;2022-10-15T03:32:52;35.17;;;22.60;;
5742;SDS011;2896;53.500;10.020;2022-10-15T03:35:19;36.10;;;20.73;;
5742;SDS011;2896;53.500;10.020;2022-10-15T03:37:46;37.33;;;21.70;;
5742;SDS011;2896;53.500;10.020;2022-10-15T03:40:14;35.67;;;20.10;;
5742;SDS011;2896;53.500;10.020;2022-10-15T03:42:40;34.40;;;21.00;;
5742;SDS011;2896;53.500;10.020;2022-10-15T03:45:08;27.43;;;17.80;;
5742;SDS011;2896;53.500;10.020;2022-10-15T03:47:35;28.67;;;17.10;;
5742;SDS011;2896;53.500;10.020;2022-10-15T03:50:01;30.23;;;20.07;;
5742;SDS011;2896;53.500;10.020;2022-10-15T03:52:28;29.87;;;18.90;;
5742;SDS011;2896;53.500;10.020;2022-10-15T03:54:55;27.73;;;17.17;;
5742;SDS011;2896;53.500;10.020;2022-10-15T03:57:23;37.90;;;20.00;;
5742;SDS011;2896;53.500;10.020;2022-10-15T03:59:50;35.90;;;20.63;;
5742;SDS011;2896;53.500;10.020;2022-10-15T04:02:17;31.60;;;20.50;;
5742;SDS011;2896;53.500;10.020;2022-10-15T04:04:44;34.73;;;20.50;;
5742;SDS011;2896;53.500;10.020;2022-10-15T04:07:10;31.93;;;18.73;;
5742;SDS011;2896;53.500;10.020;2022-10-15T04:09:37;36.80;;;22.50;;
5742;SDS011;2896;53.500;10.020;2022-10-15T04:12:04;27.87;;;18.20;;
5742;SDS011;2896;53.500;10.020;2022-10-15T04:14:32;39.93;;;19.07;;
5742;SDS011;2896;53.500;10.020;2022-10-15T04:16:59;40.23;;;21.03;;
5742;SDS011;2896;53.500;10.020;2022-10-15T04:19:25;32.63;;;21.13;;
5742;SDS011;2896;53.500;10.020;2022-10-15T04:21:52;39.13;;;21.20;;
5742;SDS011;2896;53.500;10.020;2022-10-15T04:24:19;33.57;;;19.37;;
5742;SDS011;2896;53.500;10.020;2022-10-15T04:26:45;27.50;;;17.10;;
5742;SDS011;2896;53.500;10.020;2022-10-15T04:29:12;30.73;;;19.23;;
5742;SDS011;2896;53.500;10.020;2022-10-15T04:31:40;39.30;;;22.90;;
5742;SDS011;2896;53.500;10.020;2022-10-15T04:34:07;43.00;;;23.40;;
5742;SDS011;2896;53.500;10.020;2022-10-15T04:36:34;32.77;;;20.13;;
5742;SDS011;2896;53.500;10.020;2022-10-15T04:39:01;55.17;;;27.00;;
5742;SDS011;2896;53.500;10.020;2022-10-15T04:41:28;49.03;;;26.57;;
5742;SDS011;2896;53.500;10.020;2022-10-15T04:43:55;41.83;;;25.77;;
5742;SDS011;2896;53.500;10.020;2022-10-15T04:46:22;40.73;;;22.43;;
5742;SDS011;2896;53.500;10.020;2022-10-15T04:48:51;50.37;;;27.67;;
5742;SDS011;2896;53.500;10.020;2022-10-15T04:51:22;48.57;;;25.97;;
5742;SDS011;2896;53.500;10.020;2022-10-15T04:53:49;49.20;;;25.97;;
5742;SDS011;2896;53.500;10.020;2022-10-15T04:56:17;47.37;;;26.10;;
5742;SDS011;2896;53.500;10.020;2022-10-15T04:58:46;40.70;;;23.77;;
5742;SDS011;2896;53.500;10.020;2022-10-15T05:01:14;50.60;;;28.00;;
5742;SDS011;2896;53.500;10.020;2022-10-15T05:03:43;48.23;;;26.87;;
5742;SDS011;2896;53.500;10.020;2022-10-15T05:06:13;42.20;;;25.40;;
5742;SDS011;2896;53.500;10.020;2022-10-15T05:08:42;50.47;;;25.73;;
5742;SDS011;2896;53.500;10.020;2022-10-15T05:11:10;56.63;;;27.30;;
5742;SDS011;2896;53.500;10.020;2022-10-15T05:13:38;49.23;;;25.07;;
5742;SDS011;2896;53.500;10.020;2022-10-15T05:16:08;52.80;;;24.83;;
5742;SDS011;2896;53.500;10.020;2022-10-15T05:18:37;48.33;;;26.37;;
5742;SDS011;2896;53.500;10.020;2022-10-15T05:21:04;47.13;;;24.80;;
5742;SDS011;2896;53.500;10.020;2022-10-15T05:23:33;42.30;;;24.37;;
5742;SDS011;2896;53.500;10.020;2022-10-15T05:26:01;60.77;;;24.77;;
5742;SDS011;2896;53.500;10.020;2022-10-15T05:28:29;48.60;;;24.60;;
5742;SDS011;2896;53.500;10.020;2022-10-15T05:30:56;49.57;;;24.97;;
5742;SDS011;2896;53.500;10.020;2022-10-15T05:33:28;51.93;;;23.57;;
5742;SDS011;2896;53.500;10.020;2022-10-15T05:35:54;43.73;;;24.33;;
5742;SDS011;2896;53.500;10.020;2022-10-15T05:38:21;47.17;;;24.77;;
5742;SDS011;2896;53.500;10.020;2022-10-15T05:40:49;46.90;;;24.00;;
5742;SDS011;2896;53.500;10.020;2022-10-15T05:43:16;47.60;;;25.10;;
5742;SDS011;2896;53.500;10.020;2022-10-15T05:45:42;38.50;;;23.00;;
5742;SDS011;2896;53.500;10.020;2022-10-15T05:48:09;40.70;;;23.13;;
5742;SDS011;2896;53.500;10.020;2022-10-15T05:50:36;47.97;;;24.40;;
5742;SDS011;2896;53.500;10.020;2022-10-15T05:53:02;56.03;;;25.43;;
5742;SDS011;2896;53.500;10.020;2022-10-15T05:55:29;54.97;;;25.33;;
5742;SDS011;2896;53.500;10.020;2022-10-15T05:58:00;49.07;;;25.23;;
5742;SDS011;2896;53.500;10.020;2022-10-15T06:00:28;52.70;;;25.87;;
5742;SDS011;2896;53.500;10.020;2022-10-15T06:02:54;54.57;;;27.30;;
5742;SDS011;2896;53.500;10.020;2022-10-15T06:05:21;52.33;;;26.57;;
5742;SDS011;2896;53.500;10.020;2022-10-15T06:07:48;44.93;;;24.53;;
5742;SDS011;2896;53.500;10.020;2022-10-15T06:10:15;44.00;;;23.10;;
5742;SDS011;2896;53.500;10.020;2022-10-15T06:12:42;52.93;;;24.57;;
5742;SDS011;2896;53.500;10.020;2022-10-15T06:15:15;42.87;;;23.47;;
5742;SDS011;2896;53.500;10.020;2022-10-15T06:17:42;58.10;;;26.17;;
5742;SDS011;2896;53.500;10.020;2022-10-15T06:20:09;46.43;;;25.90;;
5742;SDS011;2896;53.500;10.020;2022-10-15T06:22:36;44.27;;;24.80;;
5742;SDS011;2896;53.500;10.020;2022-10-15T06:25:03;32.93;;;19.97;;
5742;SDS011;2896;53.500;10.020;2022-10-15T06:27:31;40.40;;;23.70;;
5742;SDS011;2896;53.500;10.020;2022-10-15T06:29:58;50.23;;;24.00;;
5742;SDS011;2896;53.500;10.020;2022-10-15T06:32:26;51.93;;;26.10;;
5742;SDS011;2896;53.500;10.020;2022-10-15T06:34:52;40.03;;;22.83;;
5742;SDS011;2896;53.500;10.020;2022-10-15T06:37:19;56.43;;;28.03;;
5742;SDS011;2896;53.500;10.020;2022-10-15T06:39:46;53.60;;;27.77;;
5742;SDS011;2896;53.500;10.020;2022-10-15T06:42:12;43.73;;;23.37;;
5742;SDS011;2896;53.500;10.020;2022-10-15T06:44:39;51.33;;;26.80;;
5742;SDS011;2896;53.500;10.020;2022-10-15T06:47:06;58.97;;;29.50;;
5742;SDS011;2896;53.500;10.020;2022-10-15T06:49:34;50.33;;;27.67;;
5742;SDS011;2896;53.500;10.020;2022-10-15T06:52:01;53.50;;;27.90;;
5742;SDS011;2896;53.500;10.020;2022-10-15T06:54:28;50.43;;;27.30;;
5742;SDS011;2896;53.500;10.020;2022-10-15T06:56:55;49.20;;;25.97;;
5742;SDS011;2896;53.500;10.020;2022-10-15T06:59:21;59.30;;;29.07;;
5742;SDS011;2896;53.500;10.020;2022-10-15T07:01:48;55.67;;;27.40;;
5742;SDS011;2896;53.500;10.020;2022-10-15T07:04:15;50.07;;;28.03;;
5742;SDS011;2896;53.500;10.020;2022-10-15T07:06:43;50.53;;;27.37;;
5742;SDS011;2896;53.500;10.020;2022-10-15T07:09:09;50.07;;;26.23;;
5742;SDS011;2896;53.500;10.020;2022-10-15T07:11:36;61.20;;;28.00;;
5742;SDS011;2896;53.500;10.020;2022-10-15T07:14:03;51.70;;;27.47;;
5742;SDS011;2896;53.500;10.020;2022-10-15T07:16:29;48.00;;;25.83;;
5742;SDS011;2896;53.500;10.020;2022-10-15T07:18:56;52.00;;;26.97;;
5742;SDS011;2896;53.500;10.020;2022-10-15T07:21:23;53.93;;;27.50;;
5742;SDS011;2896;53.500;10.020;2022-10-15T07:23:51;51.27;;;25.80;;
5742;SDS011;2896;53.500;10.020;2022-10-15T07:26:17;51.07;;;27.33;;
5742;SDS011;2896;53.500;10.020;2022-10-15T07:28:44;43.07;;;24.50;;
5742;SDS011;2896;53.500;10.020;2022-10-15T07:31:11;37.87;;;22.83;;
5742;SDS011;2896;53.500;10.020;2022-10-15T07:33:40;54.80;;;27.60;;
5742;SDS011;2896;53.500;10.020;2022-10-15T07:36:08;61.70;;;25.53;;
5742;SDS011;2896;53.500;10.020;2022-10-15T07:38:36;51.50;;;26.53;;
5742;SDS011;2896;53.500;10.020;2022-10-15T07:41:06;42.17;;;24.17;;
5742;SDS011;2896;53.500;10.020;2022-10-15T07:43:35;53.10;;;25.30;;
5742;SDS011;2896;53.500;10.020;2022-10-15T07:46:02;35.00;;;21.50;;
5742;SDS011;2896;53.500;10.020;2022-10-15T07:48:29;44.07;;;24.10;;
5742;SDS011;2896;53.500;10.020;2022-10-15T07:50:57;44.47;;;25.13;;
5742;SDS011;2896;53.500;10.020;2022-10-15T07:53:25;41.60;;;23.60;;
5742;SDS011;2896;53.500;10.020;2022-10-15T07:55:52;47.93;;;24.63;;
5742;SDS011;2896;53.500;10.020;2022-10-15T07:58:24;57.70;;;25.60;;
5742;SDS011;2896;53.500;10.020;2022-10-15T08:00:51;48.37;;;23.87;;
5742;SDS011;2896;53.500;10.020;2022-10-15T08:03:17;47.50;;;25.10;;
5742;SDS011;2896;53.500;10.020;2022-10-15T08:05:44;53.73;;;26.77;;
5742;SDS011;2896;53.500;10.020;2022-10-15T08:08:11;45.97;;;23.97;;
5742;SDS011;2896;53.500;10.020;2022-10-15T08:10:37;48.10;;;24.60;;
5742;SDS011;2896;53.500;10.020;2022-10-15T08:13:04;36.43;;;23.33;;
5742;SDS011;2896;53.500;10.020;2022-10-15T08:15:32;46.80;;;25.60;;
5742;SDS011;2896;53.500;10.020;2022-10-15T08:17:59;44.63;;;24.30;;
5742;SDS011;2896;53.500;10.020;2022-10-15T08:20:25;38.70;;;23.70;;
5742;SDS011;2896;53.500;10.020;2022-10-15T08:22:52;41.33;;;22.37;;
5742;SDS011;2896;53.500;10.020;2022-10-15T08:25:19;53.00;;;23.23;;
5742;SDS011;2896;53.500;10.020;2022-10-15T08:27:46;41.70;;;23.00;;
5742;SDS011;2896;53.500;10.020;2022-10-15T08:30:12;45.20;;;23.83;;
5742;SDS011;2896;53.500;10.020;2022-10-15T08:32:40;41.27;;;23.10;;
5742;SDS011;2896;53.500;10.020;2022-10-15T08:35:07;40.60;;;23.57;;
5742;SDS011;2896;53.500;10.020;2022-10-15T08:37:34;32.83;;;19.90;;
5742;SDS011;2896;53.500;10.020;2022-10-15T08:40:01;42.43;;;22.60;;
5742;SDS011;2896;53.500;10.020;2022-10-15T08:42:29;40.13;;;22.60;;
5742;SDS011;2896;53.500;10.020;2022-10-15T08:45:01;38.23;;;22.50;;
5742;SDS011;2896;53.500;10.020;2022-10-15T08:47:32;40.57;;;21.40;;
5742;SDS011;2896;53.500;10.020;2022-10-15T08:50:05;41.00;;;21.83;;
5742;SDS011;2896;53.500;10.020;2022-10-15T08:52:43;41.50;;;23.03;;
5742;SDS011;2896;53.500;10.020;2022-10-15T08:55:12;40.00;;;22.20;;
5742;SDS011;2896;53.500;10.020;2022-10-15T08:57:42;37.70;;;22.57;;
5742;SDS011;2896;53.500;10.020;2022-10-15T09:00:16;39.23;;;21.87;;
5742;SDS011;2896;53.500;10.020;2022-10-15T09:02:47;46.60;;;22.80;;
5742;SDS011;2896;53.500;10.020;2022-10-15T09:05:23;46.40;;;22.57;;
5742;SDS011;2896;53.500;10.020;2022-10-15T09:07:55;36.60;;;21.27;;
5742;SDS011;2896;53.500;10.020;2022-10-15T09:10:30;38.53;;;21.40;;
5742;SDS011;2896;53.500;10.020;2022-10-15T09:13:02;34.47;;;21.30;;
5742;SDS011;2896;53.500;10.020;2022-10-15T09:15:33;40.17;;;21.60;;
5742;SDS011;2896;53.500;10.020;2022-10-15T09:18:15;37.67;;;21.33;;
5742;SDS011;2896;53.500;10.020;2022-10-15T09:20:46;36.20;;;21.03;;
5742;SDS011;2896;53.500;10.020;2022-10-15T09:23:15;32.30;;;20.00;;
5742;SDS011;2896;53.500;10.020;2022-10-15T09:25:44;36.30;;;20.47;;
5742;SDS011;2896;53.500;10.020;2022-10-15T09:28:17;31.20;;;18.40;;
5742;SDS011;2896;53.500;10.020;2022-10-15T09:30:51;35.87;;;19.20;;
5742;SDS011;2896;53.500;10.020;2022-10-15T09:33:24;39.90;;;22.97;;
5742;SDS011;2896;53.500;10.020;2022-10-15T09:36:01;35.70;;;20.10;;
5742;SDS011;2896;53.500;10.020;2022-10-15T09:38:43;32.63;;;20.17;;
5742;SDS011;2896;53.500;10.020;2022-10-15T09:41:20;36.67;;;19.87;;
5742;SDS011;2896;53.500;10.020;2022-10-15T09:43:55;31.43;;;18.40;;
5742;SDS011;2896;53.500;10.020;2022-10-15T09:46:23;24.97;;;17.20;;
5742;SDS011;2896;53.500;10.020;2022-10-15T09:48:51;26.87;;;17.47;;
5742;SDS011;2896;53.500;10.020;2022-10-15T09:51:27;36.77;;;18.87;;
5742;SDS011;2896;53.500;10.020;2022-10-15T09:54:00;32.07;;;17.30;;
5742;SDS011;2896;53.500;10.020;2022-10-15T09:56:35;26.40;;;17.23;;
5742;SDS011;2896;53.500;10.020;2022-10-15T09:59:03;25.13;;;16.20;;
5742;SDS011;2896;53.500;10.020;2022-10-15T10:01:31;20.03;;;13.80;;
5742;SDS011;2896;53.500;10.020;2022-10-15T10:04:11;27.80;;;16.13;;
5742;SDS011;2896;53.500;10.020;2022-10-15T10:06:46;24.60;;;15.30;;
5742;SDS011;2896;53.500;10.020;2022-10-15T10:09:16;24.00;;;14.30;;
5742;SDS011;2896;53.500;10.020;2022-10-15T10:11:45;25.87;;;15.43;;
5742;SDS011;2896;53.500;10.020;2022-10-15T10:14:20;22.40;;;14.50;;
5742;SDS011;2896;53.500;10.020;2022-10-15T10:19:42;26.47;;;15.07;;
5742;SDS011;2896;53.500;10.020;2022-10-15T10:22:16;24.10;;;15.70;;
5742;SDS011;2896;53.500;10.020;2022-10-15T10:24:44;22.60;;;15.23;;
5742;SDS011;2896;53.500;10.020;2022-10-15T10:27:16;26.23;;;15.70;;
5742;SDS011;2896;53.500;10.020;2022-10-15T10:29:47;19.67;;;12.20;;
5742;SDS011;2896;53.500;10.020;2022-10-15T10:32:20;22.43;;;13.63;;
5742;SDS011;2896;53.500;10.020;2022-10-15T10:34:51;23.60;;;14.57;;
5742;SDS011;2896;53.500;10.020;2022-10-15T10:37:20;21.67;;;12.80;;
5742;SDS011;2896;53.500;10.020;2022-10-15T10:39:50;18.80;;;12.40;;
5742;SDS011;2896;53.500;10.020;2022-10-15T10:42:22;19.47;;;13.07;;
5742;SDS011;2896;53.500;10.020;2022-10-15T10:45:06;23.20;;;11.63;;
5742;SDS011;2896;53.500;10.020;2022-10-15T10:47:41;13.97;;;9.60;;
5742;SDS011;2896;53.500;10.020;2022-10-15T10:50:25;18.83;;;10.20;;
5742;SDS011;2896;53.500;10.020;2022-10-15T10:52:54;17.07;;;11.60;;
5742;SDS011;2896;53.500;10.020;2022-10-15T10:55:24;17.70;;;10.33;;
5742;SDS011;2896;53.500;10.020;2022-10-15T10:58:02;15.20;;;9.77;;
5742;SDS011;2896;53.500;10.020;2022-10-15T11:00:33;16.63;;;9.50;;
5742;SDS011;2896;53.500;10.020;2022-10-15T11:03:03;11.20;;;8.80;;
5742;SDS011;2896;53.500;10.020;2022-10-15T11:05:32;16.73;;;8.90;;
5742;SDS011;2896;53.500;10.020;2022-10-15T11:08:05;14.10;;;7.97;;
5742;SDS011;2896;53.500;10.020;2022-10-15T11:10:40;17.33;;;8.70;;
5742;SDS011;2896;53.500;10.020;2022-10-15T11:13:26;16.50;;;8.00;;
5742;SDS011;2896;53.500;10.020;2022-10-15T11:16:02;10.43;;;7.90;;
5742;SDS011;2896;53.500;10.020;2022-10-15T11:18:36;8.67;;;6.70;;
5742;SDS011;2896;53.500;10.020;2022-10-15T11:21:20;11.03;;;7.00;;
5742;SDS011;2896;53.500;10.020;2022-10-15T11:23:57;10.53;;;6.07;;
5742;SDS011;2896;53.500;10.020;2022-10-15T11:26:34;9.83;;;5.37;;
5742;SDS011;2896;53.500;10.020;2022-10-15T11:29:14;7.43;;;5.60;;
5742;SDS011;2896;53.500;10.020;2022-10-15T11:31:50;8.23;;;5.53;;
5742;SDS011;2896;53.500;10.020;2022-10-15T11:34:24;6.60;;;4.93;;
5742;SDS011;2896;53.500;10.020;2022-10-15T11:37:04;12.43;;;5.80;;
5742;SDS011;2896;53.500;10.020;2022-10-15T11:39:48;9.83;;;4.40;;
5742;SDS011;2896;53.500;10.020;2022-10-15T11:42:27;6.20;;;3.90;;
5742;SDS011;2896;53.500;10.020;2022-10-15T11:45:02;3.30;;;3.00;;
5742;SDS011;2896;53.500;10.020;2022-10-15T11:47:45;8.40;;;2.90;;
5742;SDS011;2896;53.500;10.020;2022-10-15T11:50:18;7.80;;;3.70;;
5742;SDS011;2896;53.500;10.020;2022-10-15T11:53:00;6.47;;;3.40;;
5742;SDS011;2896;53.500;10.020;2022-10-15T11:55:42;9.20;;;3.40;;
5742;SDS011;2896;53.500;10.020;2022-10-15T11:58:12;5.70;;;4.27;;
5742;SDS011;2896;53.500;10.020;2022-10-15T12:00:45;3.70;;;3.50;;
5742;SDS011;2896;53.500;10.020;2022-10-15T12:03:18;8.33;;;3.60;;
5742;SDS011;2896;53.500;10.020;2022-10-15T12:05:49;10.20;;;4.23;;
5742;SDS011;2896;53.500;10.020;2022-10-15T12:08:18;8.97;;;3.67;;
5742;SDS011;2896;53.500;10.020;2022-10-15T12:10:56;4.83;;;3.33;;
5742;SDS011;2896;53.500;10.020;2022-10-15T12:13:38;6.30;;;3.40;;
5742;SDS011;2896;53.500;10.020;2022-10-15T12:16:15;5.50;;;4.30;;
5742;SDS011;2896;53.500;10.020;2022-10-15T12:18:51;4.60;;;3.60;;
5742;SDS011;2896;53.500;10.020;2022-10-15T12:21:30;4.37;;;3.73;;
5742;SDS011;2896;53.500;10.020;2022-10-15T12:24:04;7.77;;;3.87;;
5742;SDS011;2896;53.500;10.020;2022-10-15T12:26:35;3.57;;;3.27;;
5742;SDS011;2896;53.500;10.020;2022-10-15T12:29:04;9.10;;;3.43;;
5742;SDS011;2896;53.500;10.020;2022-10-15T12:31:45;6.83;;;3.00;;
5742;SDS011;2896;53.500;10.020;2022-10-15T12:34:29;4.43;;;2.80;;
5742;SDS011;2896;53.500;10.020;2022-10-15T12:37:02;2.97;;;2.77;;
5742;SDS011;2896;53.500;10.020;2022-10-15T12:39:33;5.00;;;3.27;;
5742;SDS011;2896;53.500;10.020;2022-10-15T12:42:04;3.40;;;3.10;;
5742;SDS011;2896;53.500;10.020;2022-10-15T12:44:47;4.00;;;3.60;;
5742;SDS011;2896;53.500;10.020;2022-10-15T12:47:14;5.73;;;4.47;;
5742;SDS011;2896;53.500;10.020;2022-10-15T12:50:14;4.47;;;3.50;;
5742;SDS011;2896;53.500;10.020;2022-10-15T12:55:31;6.27;;;3.73;;
5742;SDS011;2896;53.500;10.020;2022-10-15T12:58:01;4.77;;;4.30;;
5742;SDS011;2896;53.500;10.020;2022-10-15T13:00:51;4.73;;;3.73;;
5742;SDS011;2896;53.500;10.020;2022-10-15T13:03:22;5.90;;;4.13;;
5742;SDS011;2896;53.500;10.020;2022-10-15T13:06:11;5.70;;;4.47;;
5742;SDS011;2896;53.500;10.020;2022-10-15T13:08:42;3.87;;;3.57;;
5742;SDS011;2896;53.500;10.020;2022-10-15T13:11:15;4.97;;;4.20;;
5742;SDS011;2896;53.500;10.020;2022-10-15T13:13:47;7.07;;;4.50;;
5742;SDS011;2896;53.500;10.020;2022-10-15T13:16:15;5.23;;;4.73;;
5742;SDS011;2896;53.500;10.020;2022-10-15T13:18:42;5.23;;;4.73;;
5742;SDS011;2896;53.500;10.020;2022-10-15T13:21:15;6.00;;;5.37;;
5742;SDS011;2896;53.500;10.020;2022-10-15T13:23:45;5.87;;;5.43;;
5742;SDS011;2896;53.500;10.020;2022-10-15T13:26:18;8.40;;;6.43;;
5742;SDS011;2896;53.500;10.020;2022-10-15T13:28:48;5.63;;;5.20;;
5742;SDS011;2896;53.500;10.020;2022-10-15T13:31:18;8.70;;;6.90;;
5742;SDS011;2896;53.500;10.020;2022-10-15T13:33:49;7.07;;;6.37;;
5742;SDS011;2896;53.500;10.020;2022-10-15T13:36:19;10.50;;;8.00;;
5742;SDS011;2896;53.500;10.020;2022-10-15T13:38:51;12.53;;;7.50;;
5742;SDS011;2896;53.500;10.020;2022-10-15T13:41:26;10.30;;;7.73;;
5742;SDS011;2896;53.500;10.020;2022-10-15T13:43:57;9.17;;;8.27;;
5742;SDS011;2896;53.500;10.020;2022-10-15T13:46:25;10.17;;;8.70;;
5742;SDS011;2896;53.500;10.020;2022-10-15T13:48:57;9.27;;;8.13;;
5742;SDS011;2896;53.500;10.020;2022-10-15T13:51:27;10.97;;;9.43;;
5742;SDS011;2896;53.500;10.020;2022-10-15T13:53:58;11.20;;;9.50;;
5742;SDS011;2896;53.500;10.020;2022-10-15T13:56:27;15.33;;;10.47;;
5742;SDS011;2896;53.500;10.020;2022-10-15T13:58:55;11.90;;;10.30;;
5742;SDS011;2896;53.500;10.020;2022-10-15T14:01:25;9.17;;;8.13;;
5742;SDS011;2896;53.500;10.020;2022-10-15T14:03:53;14.83;;;9.63;;
5742;SDS011;2896;53.500;10.020;2022-10-15T14:06:22;15.07;;;11.40;;
5742;SDS011;2896;53.500;10.020;2022-10-15T14:08:52;16.97;;;10.13;;
5742;SDS011;2896;53.500;10.020;2022-10-15T14:11:20;16.27;;;11.50;;
5742;SDS011;2896;53.500;10.020;2022-10-15T14:13:47;14.83;;;12.00;;
5742;SDS011;2896;53.500;10.020;2022-10-15T14:16:18;17.27;;;12.87;;
5742;SDS011;2896;53.500;10.020;2022-10-15T14:18:49;14.30;;;12.00;;
5742;SDS011;2896;53.500;10.020;2022-10-15T14:21:18;13.83;;;12.33;;
5742;SDS011;2896;53.500;10.020;2022-10-15T14:23:52;13.67;;;12.20;;
5742;SDS011;2896;53.500;10.020;2022-10-15T14:26:29;12.60;;;11.30;;
5742;SDS011;2896;53.500;10.020;2022-10-15T14:28:57;20.27;;;14.17;;
5742;SDS011;2896;53.500;10.020;2022-10-15T14:31:30;14.00;;;11.53;;
5742;SDS011;2896;53.500;10.020;2022-10-15T14:34:02;15.70;;;12.00;;
5742;SDS011;2896;53.500;10.020;2022-10-15T14:36:29;17.30;;;14.10;;
5742;SDS011;2896;53.500;10.020;2022-10-15T14:41:56;15.97;;;13.03;;
5742;SDS011;2896;53.500;10.020;2022-10-15T14:44:24;17.87;;;13.73;;
5742;SDS011;2896;53.500;10.020;2022-10-15T14:46:58;19.63;;;13.87;;
5742;SDS011;2896;53.500;10.020;2022-10-15T14:49:27;19.07;;;15.70;;
5742;SDS011;2896;53.500;10.020;2022-10-15T14:51:57;17.60;;;13.67;;
5742;SDS011;2896;53.500;10.020;2022-10-15T14:54:32;19.50;;;14.63;;
5742;SDS011;2896;53.500;10.020;2022-10-15T14:57:02;25.80;;;12.93;;
5742;SDS011;2896;53.500;10.020;2022-10-15T14:59:30;16.33;;;13.10;;
5742;SDS011;2896;53.500;10.020;2022-10-15T15:02:02;16.10;;;14.40;;
5742;SDS011;2896;53.500;10.020;2022-10-15T15:04:37;16.33;;;13.90;;
5742;SDS011;2896;53.500;10.020;2022-10-15T15:07:08;16.13;;;12.17;;